Bramon, Sweden

1:11 AM CEST on July 25, 2014 (GMT +0200)
Bydalen (IVSTERNO11) Elev 290 ft | 62.42 °N, 17.33 °E | Change Station

Current weather conditions updated 1 minute ago

Clear
Clear
62.1 °F
Feels Like 62.1 °F
N
0.0
Wind Variable Wind from North
Gusts 0.0 mph

Today is forecast to be Much Cooler than yesterday.

Today
High -- | Low -- °F
--% Chance of Precip.
Yesterday
High -- | Low -- °F
Precip. -- in
3:53 AM 9:55 PM
Waning Crescent, 4% visible
Pressure 30.18 in
Visibility -9999.0 miles
Clouds
Dew Point 57 °F
Humidity 84%
Rainfall 0.00 in
Snow Depth Not available.
UV Not available.
Pollen Not available.
Air Quality Not available.
Flu Activity Not available.
METAR ESNN 242250Z VRB02KT CAVOK 16/13 Q1022

More Conditions Fewer Conditions

Pressure 30.18 in
Visibility -9999.0 miles
Clouds
Dew Point 57 °F
Humidity 84%
Rainfall 0.00 in
Snow Depth Not available.
UV Not available.
Pollen Not available.
Air Quality Not available.
Flu Activity Not available.
METAR ESNN 242250Z VRB02KT CAVOK 16/13 Q1022

More Conditions Fewer Conditions

10-Day Weather Forecast

Almanac

Astronomy

Jul. 25, 2014 Rise Set
Actual Time 3:53 AM CEST 9:55 PM CEST
Civil Twilight 2:28 AM CEST 11:18 PM CEST
Nautical Twilight Sun does not rise Sun does not rise
Astronomical Twilight Sun does not rise Sun does not rise
Moon 2:52 AM CEST (7/25) 8:19 PM CEST (7/25)
Length of Visible Light 20h 49m
Length of Day
18h 01m
Tomorrow will be 5m 19s shorter.
Waning Crescent, 4% of the Moon is Illuminated
Jul 24
Waning Crescent
Jul 26
New
Aug 3
First Quarter
Aug 10
Full
Aug 17
Last Quarter

Yesterday's Extremes

Country Highs Country Lows

Community

WunderPhotos

Upload Photos

1,737,162 photos uploaded!

Nearby

Snow Depth

Not available.

Earthquake Activity

City Distance Mag. Time & Date
No recent earthquake activity has been reported nearby.
Minimum magnitude displayed is 2.5.

Coastal Water Temperatures

Place Temperature
No Stations Reporting

Nearby Weather Stations

Station Location Temp. Dew Point Humidity Wind Precip. Elev Updated Type
Bydalen, Sundsvall 62.1 °F 57 °F 84% North  at  0.0 mph 0.00 in / hr 290 ft 1:10 AM CEST Rapid Fire
Gudmundsbyn, Sundsvall 57.6 °F 56 °F 96% NNW  at  2.0 mph 0.00 in / hr 259 ft 1:10 AM CEST Normal
Lonnanger, Nordanstig, Lonnanger 55.9 °F 55 °F 97% WNW  at  1.0 mph 0.00 in / hr 34 ft 1:02 AM CEST Normal

Show More Stations Show Fewer Stations